createdAt,value
2019-03-28T00:01:38.851Z,49.80
2019-03-28T00:04:09.089Z,52.50
2019-03-28T00:06:39.627Z,60.23
2019-03-28T00:09:10.081Z,44.10
2019-03-28T00:11:40.599Z,48.80
2019-03-28T00:14:10.823Z,46.97
2019-03-28T00:16:41.099Z,52.70
2019-03-28T00:19:11.254Z,45.23
2019-03-28T00:21:41.429Z,58.67
2019-03-28T00:24:29.841Z,41.17
2019-03-28T00:27:00.101Z,51.30
2019-03-28T00:29:30.299Z,49.23
2019-03-28T00:32:00.651Z,51.23
2019-03-28T00:34:31.086Z,56.53
2019-03-28T00:37:01.988Z,52.40
2019-03-28T00:39:32.658Z,48.77
2019-03-28T00:42:03.363Z,46.77
2019-03-28T00:44:33.847Z,44.40
2019-03-28T00:47:04.074Z,49.67
2019-03-28T00:49:34.247Z,48.90
2019-03-28T00:52:05.514Z,41.67
2019-03-28T00:54:35.674Z,48.80
2019-03-28T00:57:05.924Z,48.70
2019-03-28T00:59:36.427Z,41.00
2019-03-28T01:02:06.594Z,39.37
2019-03-28T01:04:37.119Z,46.10
2019-03-28T01:07:07.380Z,51.47
2019-03-28T01:09:37.686Z,49.33
2019-03-28T01:12:08.300Z,43.37
2019-03-28T01:14:39.054Z,49.43
2019-03-28T01:17:10.512Z,50.60
2019-03-28T01:19:40.666Z,47.17
2019-03-28T01:22:10.859Z,57.30
2019-03-28T01:24:41.092Z,48.97
2019-03-28T01:27:11.258Z,49.07
2019-03-28T01:29:41.427Z,42.07
2019-03-28T01:32:11.589Z,48.67
2019-03-28T01:34:42.007Z,48.20
2019-03-28T01:37:12.256Z,54.40
2019-03-28T01:39:43.638Z,47.63
2019-03-28T01:42:13.818Z,46.13
2019-03-28T01:44:44.329Z,47.07
2019-03-28T01:47:14.570Z,43.53
2019-03-28T01:49:44.820Z,46.13
2019-03-28T01:52:15.923Z,48.33
2019-03-28T01:54:46.340Z,41.33
2019-03-28T01:57:16.507Z,48.37
2019-03-28T01:59:46.704Z,47.67
2019-03-28T02:02:17.115Z,50.53
2019-03-28T02:04:47.565Z,52.50
2019-03-28T02:07:17.798Z,45.30
2019-03-28T02:09:47.966Z,46.13
2019-03-28T02:12:18.144Z,49.77
2019-03-28T02:14:48.439Z,49.93
2019-03-28T02:17:18.846Z,51.93
2019-03-28T02:19:49.522Z,43.20
2019-03-28T02:22:19.698Z,55.93
2019-03-28T02:24:50.127Z,48.90
2019-03-28T02:27:24.380Z,58.27
2019-03-28T02:29:52.184Z,47.67
2019-03-28T02:32:22.579Z,54.30
2019-03-28T02:34:52.827Z,47.63
2019-03-28T02:37:23.433Z,55.03
2019-03-28T02:39:53.971Z,47.63
2019-03-28T02:42:24.390Z,48.97
2019-03-28T02:44:54.583Z,53.33
2019-03-28T02:47:25.009Z,53.27
2019-03-28T02:49:55.578Z,54.10
2019-03-28T02:52:25.754Z,51.00
2019-03-28T02:54:56.012Z,52.70
2019-03-28T02:57:40.213Z,55.53
2019-03-28T02:59:58.375Z,54.80
2019-03-28T03:02:28.611Z,55.43
2019-03-28T03:04:58.791Z,58.00
2019-03-28T03:07:30.128Z,53.07
2019-03-28T03:10:00.550Z,50.93
2019-03-28T03:12:31.047Z,45.87
2019-03-28T03:15:01.253Z,55.47
2019-03-28T03:17:31.476Z,57.87
2019-03-28T03:20:01.686Z,54.17
2019-03-28T03:22:32.064Z,45.40
2019-03-28T03:25:02.308Z,47.80
2019-03-28T03:27:32.476Z,47.37
2019-03-28T03:30:03.696Z,51.93
2019-03-28T03:32:34.089Z,49.53
2019-03-28T03:35:04.926Z,49.77
2019-03-28T03:37:35.150Z,51.27
2019-03-28T03:40:06.690Z,54.70
2019-03-28T03:42:36.970Z,58.87
2019-03-28T03:45:09.328Z,55.40
2019-03-28T03:47:39.945Z,50.97
2019-03-28T03:50:11.977Z,49.47
2019-03-28T03:52:42.157Z,54.03
2019-03-28T03:55:12.318Z,44.33
2019-03-28T03:57:42.513Z,66.63
2019-03-28T04:00:15.403Z,51.20
2019-03-28T04:02:45.570Z,48.03
2019-03-28T04:05:16.383Z,43.93
2019-03-28T04:07:46.800Z,55.73
2019-03-28T04:10:17.442Z,51.63
2019-03-28T04:12:47.888Z,52.20
2019-03-28T04:15:18.094Z,47.57
2019-03-28T04:17:48.333Z,43.20
2019-03-28T04:20:18.743Z,44.50
2019-03-28T04:22:48.940Z,43.33
2019-03-28T04:25:19.119Z,42.13
2019-03-28T04:27:49.295Z,51.17
2019-03-28T04:30:19.536Z,44.87
2019-03-28T04:32:49.720Z,52.43
2019-03-28T04:35:19.891Z,42.90
2019-03-28T04:37:50.071Z,60.30
2019-03-28T04:40:20.245Z,56.83
2019-03-28T04:42:50.477Z,45.93
2019-03-28T04:45:20.795Z,48.87
2019-03-28T04:47:51.028Z,49.73
2019-03-28T04:50:21.314Z,48.80
2019-03-28T04:52:52.989Z,55.43
2019-03-28T04:55:23.648Z,44.87
2019-03-28T04:57:53.822Z,51.20
2019-03-28T05:00:24.141Z,53.33
2019-03-28T05:02:54.611Z,48.37
2019-03-28T05:05:24.864Z,51.63
2019-03-28T05:07:55.031Z,53.73
2019-03-28T05:10:26.448Z,46.63
2019-03-28T05:12:57.367Z,48.83
2019-03-28T05:15:28.483Z,52.30
2019-03-28T05:17:58.655Z,50.10
2019-03-28T05:20:28.818Z,41.50
2019-03-28T05:22:59.254Z,50.07
2019-03-28T05:25:29.409Z,52.97
2019-03-28T05:27:59.580Z,48.67
2019-03-28T05:30:29.745Z,43.10
2019-03-28T05:32:59.942Z,41.13
2019-03-28T05:35:30.192Z,42.07
2019-03-28T05:38:00.371Z,50.87
2019-03-28T05:40:30.539Z,41.73
2019-03-28T05:43:00.714Z,41.27
2019-03-28T05:45:30.878Z,46.70
2019-03-28T05:48:01.131Z,36.03
2019-03-28T05:50:31.291Z,45.57
2019-03-28T05:53:01.742Z,47.70
2019-03-28T05:55:31.913Z,42.93
2019-03-28T05:58:02.175Z,46.00
2019-03-28T06:00:32.623Z,46.47
2019-03-28T06:03:03.766Z,44.20
2019-03-28T06:05:34.059Z,43.63
2019-03-28T06:08:04.324Z,47.90
2019-03-28T06:10:34.563Z,47.00
2019-03-28T06:13:05.030Z,42.43
2019-03-28T06:15:35.458Z,45.30
2019-03-28T06:18:05.710Z,46.13
2019-03-28T06:20:35.886Z,50.27
2019-03-28T06:23:06.056Z,43.47
2019-03-28T06:25:39.432Z,40.43
2019-03-28T06:28:08.428Z,39.80
2019-03-28T06:30:38.934Z,51.33
2019-03-28T06:33:09.098Z,54.50
2019-03-28T06:35:39.354Z,54.67
2019-03-28T06:38:09.859Z,48.70
2019-03-28T06:40:40.037Z,54.03
2019-03-28T06:43:10.261Z,45.70
2019-03-28T06:45:40.431Z,47.60
2019-03-28T06:48:10.627Z,40.03
2019-03-28T06:50:40.858Z,44.13
2019-03-28T06:53:11.018Z,48.27
2019-03-28T06:55:41.527Z,41.43
2019-03-28T06:58:11.711Z,44.43
2019-03-28T07:00:41.882Z,45.33
2019-03-28T07:03:12.915Z,47.07
2019-03-28T07:05:43.255Z,45.87
2019-03-28T07:08:13.733Z,44.87
2019-03-28T07:10:44.171Z,49.33
2019-03-28T07:13:15.765Z,43.50
2019-03-28T07:15:45.935Z,43.70
2019-03-28T07:18:16.094Z,47.13
2019-03-28T07:20:46.410Z,44.23
2019-03-28T07:23:16.612Z,40.93
2019-03-28T07:25:46.958Z,46.47
2019-03-28T07:28:17.479Z,49.00
2019-03-28T07:30:47.949Z,53.80
2019-03-28T07:33:18.114Z,47.63
2019-03-28T07:35:48.284Z,48.00
2019-03-28T07:38:18.459Z,44.67
2019-03-28T07:40:48.698Z,43.53
2019-03-28T07:43:18.940Z,43.07
2019-03-28T07:45:49.467Z,44.47
2019-03-28T07:48:20.408Z,55.50
2019-03-28T07:50:50.653Z,44.87
2019-03-28T07:53:21.554Z,39.87
2019-03-28T07:55:52.221Z,43.43
2019-03-28T07:58:22.722Z,44.90
2019-03-28T08:00:52.951Z,43.40
2019-03-28T08:03:23.207Z,45.50
2019-03-28T08:05:53.411Z,46.40
2019-03-28T08:08:38.025Z,40.43
2019-03-28T08:10:56.872Z,46.93
2019-03-28T08:13:27.111Z,43.47
2019-03-28T08:15:57.550Z,51.37
2019-03-28T08:18:28.049Z,42.80
2019-03-28T08:20:58.612Z,40.60
2019-03-28T08:23:29.658Z,42.17
2019-03-28T08:25:59.934Z,42.97
2019-03-28T08:28:30.418Z,38.27
2019-03-28T08:31:00.911Z,38.83
2019-03-28T08:33:31.935Z,46.83
2019-03-28T08:36:03.958Z,44.80
2019-03-28T08:38:36.515Z,41.03
2019-03-28T08:41:07.289Z,38.57
2019-03-28T08:43:37.798Z,44.67
2019-03-28T08:46:08.856Z,42.67
2019-03-28T08:48:39.578Z,40.83
2019-03-28T08:51:09.986Z,41.60
2019-03-28T08:53:40.444Z,37.93
2019-03-28T08:56:10.615Z,36.63
2019-03-28T08:58:40.789Z,35.20
2019-03-28T09:01:11.094Z,35.60
2019-03-28T09:03:41.266Z,32.43
2019-03-28T09:06:11.458Z,34.07
2019-03-28T09:08:41.726Z,33.73
2019-03-28T09:11:12.031Z,36.07
2019-03-28T09:13:42.212Z,36.27
2019-03-28T09:16:12.388Z,33.13
2019-03-28T09:18:42.584Z,28.77
2019-03-28T09:21:12.750Z,29.77
2019-03-28T09:23:42.976Z,32.07
2019-03-28T09:26:13.159Z,37.93
2019-03-28T09:28:43.387Z,32.53
2019-03-28T09:31:19.849Z,35.80
2019-03-28T09:33:45.837Z,33.90
2019-03-28T09:36:16.077Z,28.67
2019-03-28T09:38:46.278Z,28.50
2019-03-28T09:41:16.446Z,29.03
2019-03-28T09:43:55.042Z,26.83
2019-03-28T09:46:18.491Z,28.60
2019-03-28T09:48:48.666Z,27.47
2019-03-28T09:51:18.844Z,29.60
2019-03-28T09:53:49.112Z,26.67
2019-03-28T09:56:19.275Z,30.73
2019-03-28T09:58:49.483Z,28.37
2019-03-28T10:01:19.744Z,31.70
2019-03-28T10:03:49.978Z,28.97
2019-03-28T10:06:20.154Z,33.33
2019-03-28T10:08:50.363Z,24.43
2019-03-28T10:11:20.534Z,26.80
2019-03-28T10:13:50.928Z,25.80
2019-03-28T10:16:21.127Z,23.70
2019-03-28T10:18:51.398Z,21.93
2019-03-28T10:21:21.573Z,22.83
2019-03-28T10:23:52.084Z,21.23
2019-03-28T10:26:22.502Z,27.30
2019-03-28T10:28:52.911Z,23.43
2019-03-28T10:31:23.202Z,24.67
2019-03-28T10:33:53.818Z,26.93
2019-03-28T10:36:24.015Z,26.30
2019-03-28T10:38:54.891Z,23.90
2019-03-28T10:41:25.977Z,24.53
2019-03-28T10:43:56.445Z,28.17
2019-03-28T10:46:26.742Z,24.67
2019-03-28T10:48:57.008Z,20.80
2019-03-28T10:51:27.286Z,23.30
2019-03-28T10:53:57.631Z,24.57
2019-03-28T10:56:28.118Z,27.90
2019-03-28T10:58:58.573Z,30.67
2019-03-28T11:01:46.922Z,26.57
2019-03-28T11:04:00.997Z,25.00
2019-03-28T11:06:31.204Z,22.33
2019-03-28T11:09:01.720Z,18.87
2019-03-28T11:11:33.239Z,24.40
2019-03-28T11:14:03.808Z,18.70
2019-03-28T11:16:34.067Z,20.60
2019-03-28T11:19:04.874Z,21.37
2019-03-28T11:21:35.475Z,19.17
2019-03-28T11:24:05.786Z,17.10
2019-03-28T11:26:36.265Z,22.13
2019-03-28T11:29:07.721Z,19.23
2019-03-28T11:34:10.028Z,17.03
2019-03-28T11:36:40.712Z,19.43
2019-03-28T11:39:11.443Z,18.67
2019-03-28T11:41:41.609Z,16.27
2019-03-28T11:42:35.412Z,22.43
2019-03-28T11:44:11.825Z,23.40
2019-03-28T11:46:42.067Z,14.83
2019-03-28T11:49:12.558Z,19.43
2019-03-28T11:51:43.058Z,14.60
2019-03-28T11:54:13.248Z,21.87
2019-03-28T11:56:43.624Z,18.70
2019-03-28T11:59:13.805Z,17.27
2019-03-28T12:01:43.996Z,17.63
2019-03-28T12:04:14.414Z,16.63
2019-03-28T12:06:48.783Z,15.70
2019-03-28T12:09:17.861Z,16.23
2019-03-28T12:11:48.079Z,20.33
2019-03-28T12:14:18.535Z,15.80
2019-03-28T12:16:48.709Z,16.93
2019-03-28T12:19:18.960Z,15.17
2019-03-28T12:21:49.410Z,16.40
2019-03-28T12:24:19.678Z,11.83
2019-03-28T12:26:49.869Z,11.83
2019-03-28T12:29:20.121Z,14.20
2019-03-28T12:31:50.579Z,11.73
2019-03-28T12:34:20.751Z,11.00
2019-03-28T12:36:51.172Z,10.67
2019-03-28T12:39:21.331Z,8.70
2019-03-28T12:41:51.577Z,7.00
2019-03-28T12:44:21.814Z,7.20
2019-03-28T12:46:52.319Z,9.57
2019-03-28T12:49:22.493Z,6.27
2019-03-28T12:51:52.713Z,7.17
2019-03-28T12:54:23.642Z,4.43
2019-03-28T12:56:53.913Z,8.83
2019-03-28T12:59:24.717Z,6.57
2019-03-28T13:01:55.238Z,5.93
2019-03-28T13:04:26.562Z,7.90
2019-03-28T13:06:57.883Z,4.87
2019-03-28T13:09:28.274Z,5.90
2019-03-28T13:12:00.441Z,7.67
2019-03-28T13:14:31.447Z,4.93
2019-03-28T13:17:02.086Z,3.50
2019-03-28T13:19:32.375Z,8.10
2019-03-28T13:22:02.746Z,6.03
2019-03-28T13:24:32.950Z,5.83
2019-03-28T13:27:03.564Z,5.87
2019-03-28T13:29:33.843Z,5.13
2019-03-28T13:32:04.102Z,4.50
2019-03-28T13:34:34.293Z,6.23
2019-03-28T13:37:04.701Z,6.47
2019-03-28T13:39:34.867Z,6.60
2019-03-28T13:42:05.099Z,7.40
2019-03-28T13:44:35.303Z,4.10
2019-03-28T13:47:05.467Z,6.10
2019-03-28T13:49:36.047Z,5.23
2019-03-28T13:52:06.219Z,6.00
2019-03-28T13:54:36.828Z,6.70
2019-03-28T13:57:07.100Z,5.67
2019-03-28T13:59:37.484Z,8.83
2019-03-28T14:02:07.646Z,6.23
2019-03-28T14:04:38.762Z,7.80
2019-03-28T14:07:09.192Z,8.90
2019-03-28T14:09:39.356Z,10.37
2019-03-28T14:12:09.578Z,10.53
2019-03-28T14:14:40.040Z,10.37
2019-03-28T14:17:10.663Z,14.27
2019-03-28T14:19:40.910Z,13.07
2019-03-28T14:22:11.600Z,12.17
2019-03-28T14:24:42.258Z,16.03
2019-03-28T14:27:12.547Z,12.37
2019-03-28T14:29:42.997Z,10.10
2019-03-28T14:32:13.214Z,14.90
2019-03-28T14:34:43.468Z,11.10
2019-03-28T14:37:16.876Z,16.30
2019-03-28T14:39:47.817Z,14.93
2019-03-28T14:42:19.767Z,11.07
2019-03-28T14:44:49.484Z,9.60
2019-03-28T14:47:19.674Z,11.57
2019-03-28T14:49:49.846Z,10.93
2019-03-28T14:52:20.571Z,11.60
2019-03-28T14:54:51.102Z,10.97
2019-03-28T14:57:22.135Z,16.43
2019-03-28T14:59:53.489Z,17.20
2019-03-28T15:02:23.699Z,15.07
2019-03-28T15:04:53.954Z,14.53
2019-03-28T15:07:24.172Z,16.33
2019-03-28T15:09:54.466Z,15.73
2019-03-28T15:12:24.654Z,14.50
2019-03-28T15:14:55.921Z,14.57
2019-03-28T15:17:26.390Z,12.17
2019-03-28T15:19:56.740Z,13.53
2019-03-28T15:22:26.961Z,13.40
2019-03-28T15:24:57.726Z,14.47
2019-03-28T15:27:28.366Z,13.93
2019-03-28T15:29:58.540Z,18.70
2019-03-28T15:32:29.057Z,25.90
2019-03-28T15:34:59.219Z,13.20
2019-03-28T15:37:30.606Z,14.40
2019-03-28T15:40:00.775Z,12.93
2019-03-28T15:42:31.005Z,11.17
2019-03-28T15:45:01.177Z,12.23
2019-03-28T15:47:31.819Z,12.70
2019-03-28T15:50:02.010Z,12.07
2019-03-28T15:52:33.423Z,11.87
2019-03-28T15:55:05.669Z,14.27
2019-03-28T15:57:35.828Z,13.17
2019-03-28T16:00:08.794Z,12.83
2019-03-28T16:02:38.973Z,13.93
2019-03-28T16:05:09.250Z,11.03
2019-03-28T16:07:39.643Z,14.50
2019-03-28T16:10:14.543Z,15.63
2019-03-28T16:12:43.284Z,13.73
2019-03-28T16:15:14.811Z,13.10
2019-03-28T16:17:45.122Z,12.97
2019-03-28T16:20:15.474Z,14.70
2019-03-28T16:22:45.935Z,13.23
2019-03-28T16:25:16.438Z,17.10
2019-03-28T16:27:47.486Z,12.30
2019-03-28T16:30:20.067Z,16.10
2019-03-28T16:32:51.056Z,15.40
2019-03-28T16:35:21.832Z,21.97
2019-03-28T16:37:52.008Z,18.27
2019-03-28T16:40:22.444Z,18.10
2019-03-28T16:42:52.607Z,15.47
2019-03-28T16:45:22.979Z,19.60
2019-03-28T16:47:53.979Z,14.43
2019-03-28T16:50:25.303Z,20.40
2019-03-28T16:52:55.718Z,18.87
2019-03-28T16:55:26.883Z,18.83
2019-03-28T16:57:57.834Z,18.53
2019-03-28T17:00:47.310Z,14.43
2019-03-28T17:03:17.826Z,20.73
2019-03-28T17:05:47.986Z,19.87
2019-03-28T17:08:18.997Z,16.37
2019-03-28T17:10:51.718Z,19.73
2019-03-28T17:13:22.002Z,19.30
2019-03-28T17:15:52.346Z,21.10
2019-03-28T17:18:22.654Z,18.00
2019-03-28T17:20:53.155Z,16.40
2019-03-28T17:23:24.002Z,18.40
2019-03-28T17:25:54.463Z,20.90
2019-03-28T17:28:24.806Z,18.97
2019-03-28T17:30:55.540Z,19.90
2019-03-28T17:33:25.702Z,17.93
2019-03-28T17:35:55.905Z,22.00
2019-03-28T17:38:26.080Z,18.60
2019-03-28T17:40:56.309Z,17.97
2019-03-28T17:43:26.463Z,17.30
2019-03-28T17:45:56.640Z,18.07
2019-03-28T17:48:28.518Z,22.67
2019-03-28T17:50:58.686Z,17.23
2019-03-28T17:53:28.946Z,21.10
2019-03-28T17:55:59.130Z,17.43
2019-03-28T17:58:31.667Z,23.27
2019-03-28T18:01:02.037Z,21.57
2019-03-28T18:03:32.207Z,28.03
2019-03-28T18:06:02.403Z,20.57
2019-03-28T18:08:32.608Z,20.20
2019-03-28T18:11:02.815Z,18.60
2019-03-28T18:13:33.132Z,20.07
2019-03-28T18:16:03.451Z,17.67
2019-03-28T18:18:33.663Z,25.50
2019-03-28T18:21:03.831Z,21.10
2019-03-28T18:23:34.074Z,19.83
2019-03-28T18:26:04.621Z,19.17
2019-03-28T18:28:35.719Z,20.33
2019-03-28T18:31:06.059Z,19.40
2019-03-28T18:33:36.691Z,19.23
2019-03-28T18:36:07.214Z,20.37
2019-03-28T18:38:37.717Z,21.33
2019-03-28T18:41:07.878Z,16.70
2019-03-28T18:43:38.059Z,22.03
2019-03-28T18:46:08.226Z,19.73
2019-03-28T18:48:38.698Z,17.80
2019-03-28T18:51:09.839Z,16.27
2019-03-28T18:53:40.024Z,24.30
2019-03-28T18:56:10.268Z,16.80
2019-03-28T18:58:40.521Z,19.33
2019-03-28T19:01:10.682Z,20.53
2019-03-28T19:03:40.848Z,19.17
2019-03-28T19:06:11.011Z,18.27
2019-03-28T19:08:41.598Z,21.53
2019-03-28T19:11:11.845Z,17.33
2019-03-28T19:13:42.277Z,15.67
2019-03-28T19:16:12.695Z,18.80
2019-03-28T19:18:42.859Z,15.63
2019-03-28T19:21:13.146Z,18.67
2019-03-28T19:23:43.329Z,15.13
2019-03-28T19:26:13.504Z,15.07
2019-03-28T19:28:43.690Z,16.70
2019-03-28T19:31:14.103Z,22.33
2019-03-28T19:33:44.723Z,18.13
2019-03-28T19:36:15.257Z,17.27
2019-03-28T19:38:45.905Z,15.47
2019-03-28T19:41:16.067Z,16.50
2019-03-28T19:43:46.404Z,15.27
2019-03-28T19:46:16.902Z,17.80
2019-03-28T19:48:47.074Z,15.73
2019-03-28T19:51:17.568Z,15.07
2019-03-28T19:53:47.786Z,17.67
2019-03-28T19:56:18.024Z,21.13
2019-03-28T19:58:48.874Z,16.83
2019-03-28T20:01:19.170Z,18.37
2019-03-28T20:03:52.334Z,15.93
2019-03-28T20:06:22.679Z,17.87
2019-03-28T20:08:53.631Z,15.87
2019-03-28T20:11:23.902Z,15.03
2019-03-28T20:13:54.170Z,14.17
2019-03-28T20:16:24.420Z,15.20
2019-03-28T20:18:54.906Z,12.73
2019-03-28T20:21:25.090Z,14.60
2019-03-28T20:23:56.750Z,17.63
2019-03-28T20:26:27.269Z,19.43
2019-03-28T20:28:57.765Z,19.77
2019-03-28T20:31:27.957Z,27.73
2019-03-28T20:33:58.131Z,21.90
2019-03-28T20:36:37.690Z,24.13
2019-03-28T20:39:04.201Z,22.03
2019-03-28T20:41:33.054Z,27.53
2019-03-28T20:44:03.312Z,20.97
2019-03-28T20:46:33.852Z,26.53
2019-03-28T20:49:04.017Z,21.23
2019-03-28T20:51:34.198Z,22.23
2019-03-28T20:54:07.675Z,30.77
2019-03-28T20:56:36.582Z,27.97
2019-03-28T20:59:06.750Z,20.80
2019-03-28T21:01:37.002Z,17.40
2019-03-28T21:04:07.867Z,18.53
2019-03-28T21:06:38.424Z,20.80
2019-03-28T21:09:08.964Z,17.93
2019-03-28T21:11:39.164Z,20.70
2019-03-28T21:14:09.479Z,19.37
2019-03-28T21:16:39.704Z,22.13
2019-03-28T21:19:09.926Z,19.13
2019-03-28T21:21:40.161Z,18.93
2019-03-28T21:24:10.509Z,18.70
2019-03-28T21:26:42.507Z,22.20
2019-03-28T21:29:12.983Z,17.77
2019-03-28T21:31:49.835Z,18.40
2019-03-28T21:34:15.174Z,19.77
2019-03-28T21:36:45.708Z,19.83
2019-03-28T21:39:16.228Z,20.13
2019-03-28T21:41:46.740Z,22.03
2019-03-28T21:44:17.146Z,21.83
2019-03-28T21:46:47.378Z,19.47
2019-03-28T21:49:17.556Z,17.30
2019-03-28T21:51:47.783Z,19.63
2019-03-28T21:54:17.975Z,19.60
2019-03-28T21:56:48.295Z,18.30
2019-03-28T21:59:18.543Z,21.87
2019-03-28T22:01:48.710Z,18.90
2019-03-28T22:04:18.898Z,18.63
2019-03-28T22:06:49.277Z,22.00
2019-03-28T22:09:19.571Z,21.10
2019-03-28T22:11:49.739Z,20.57
2019-03-28T22:14:20.051Z,22.63
2019-03-28T22:16:50.216Z,20.27
2019-03-28T22:19:20.390Z,21.67
2019-03-28T22:21:50.556Z,19.60
2019-03-28T22:24:20.730Z,20.23
2019-03-28T22:26:50.894Z,21.67
2019-03-28T22:29:21.396Z,20.93
2019-03-28T22:31:51.555Z,20.97
2019-03-28T22:34:22.043Z,21.63
2019-03-28T22:36:57.676Z,20.37
2019-03-28T22:39:24.325Z,19.30
2019-03-28T22:41:54.478Z,23.20
2019-03-28T22:44:24.972Z,18.27
2019-03-28T22:46:55.466Z,22.87
2019-03-28T22:49:25.633Z,21.63
2019-03-28T22:51:55.884Z,22.93
2019-03-28T22:54:26.075Z,18.17
2019-03-28T22:56:57.215Z,21.23
2019-03-28T22:59:27.409Z,21.40
2019-03-28T23:01:58.137Z,19.10
2019-03-28T23:04:28.310Z,21.30
2019-03-28T23:07:10.424Z,21.70
2019-03-28T23:09:31.681Z,21.17
2019-03-28T23:12:01.844Z,24.27
2019-03-28T23:14:32.288Z,22.43
2019-03-28T23:17:02.542Z,21.07
2019-03-28T23:19:33.260Z,21.20
2019-03-28T23:22:03.752Z,21.23
2019-03-28T23:24:33.952Z,22.20
2019-03-28T23:27:04.500Z,22.77
2019-03-28T23:29:34.678Z,22.13
2019-03-28T23:32:05.019Z,24.87
2019-03-28T23:34:35.225Z,24.13
2019-03-28T23:37:05.525Z,23.00
2019-03-28T23:39:35.991Z,22.23
2019-03-28T23:42:06.162Z,20.40
2019-03-28T23:44:36.487Z,22.23
2019-03-28T23:47:06.663Z,22.87
2019-03-28T23:49:38.605Z,20.73
2019-03-28T23:52:08.767Z,19.27
2019-03-28T23:54:38.934Z,23.50
2019-03-28T23:57:11.043Z,19.27
2019-03-28T23:59:42.083Z,24.60
